sensor_id;sensor_type;location;lat;lon;timestamp;P1;durP1;ratioP1;P2;durP2;ratioP2
26474;SDS011;14161;52.270;10.334;2023-07-02T00:02:19;3.20;;;2.90;;
26474;SDS011;14161;52.270;10.334;2023-07-02T00:04:46;5.55;;;2.80;;
26474;SDS011;14161;52.270;10.334;2023-07-02T00:07:11;5.22;;;2.75;;
26474;SDS011;14161;52.270;10.334;2023-07-02T00:09:37;6.15;;;2.83;;
26474;SDS011;14161;52.270;10.334;2023-07-02T00:12:02;4.60;;;2.58;;
26474;SDS011;14161;52.270;10.334;2023-07-02T00:14:28;4.00;;;2.90;;
26474;SDS011;14161;52.270;10.334;2023-07-02T00:16:56;5.88;;;2.90;;
26474;SDS011;14161;52.270;10.334;2023-07-02T00:19:22;5.00;;;3.25;;
26474;SDS011;14161;52.270;10.334;2023-07-02T00:21:48;4.85;;;2.72;;
26474;SDS011;14161;52.270;10.334;2023-07-02T00:24:13;5.20;;;2.80;;
26474;SDS011;14161;52.270;10.334;2023-07-02T00:26:41;5.95;;;2.78;;
26474;SDS011;14161;52.270;10.334;2023-07-02T00:29:10;4.65;;;2.90;;
26474;SDS011;14161;52.270;10.334;2023-07-02T00:31:36;3.58;;;2.67;;
26474;SDS011;14161;52.270;10.334;2023-07-02T00:34:01;4.60;;;2.55;;
26474;SDS011;14161;52.270;10.334;2023-07-02T00:36:28;4.60;;;2.90;;
26474;SDS011;14161;52.270;10.334;2023-07-02T00:38:53;4.28;;;2.80;;
26474;SDS011;14161;52.270;10.334;2023-07-02T00:41:19;12.57;;;2.30;;
26474;SDS011;14161;52.270;10.334;2023-07-02T00:43:45;4.68;;;2.40;;
26474;SDS011;14161;52.270;10.334;2023-07-02T00:46:14;3.88;;;2.38;;
26474;SDS011;14161;52.270;10.334;2023-07-02T00:48:52;3.00;;;2.40;;
26474;SDS011;14161;52.270;10.334;2023-07-02T00:51:20;3.03;;;2.13;;
26474;SDS011;14161;52.270;10.334;2023-07-02T00:53:47;4.55;;;2.40;;
26474;SDS011;14161;52.270;10.334;2023-07-02T00:56:13;3.90;;;1.80;;
26474;SDS011;14161;52.270;10.334;2023-07-02T00:58:39;5.05;;;2.08;;
26474;SDS011;14161;52.270;10.334;2023-07-02T01:01:16;4.03;;;2.10;;
26474;SDS011;14161;52.270;10.334;2023-07-02T01:03:53;2.63;;;1.50;;
26474;SDS011;14161;52.270;10.334;2023-07-02T01:06:23;4.63;;;1.70;;
26474;SDS011;14161;52.270;10.334;2023-07-02T01:08:57;2.90;;;2.03;;
26474;SDS011;14161;52.270;10.334;2023-07-02T01:11:25;3.00;;;1.80;;
26474;SDS011;14161;52.270;10.334;2023-07-02T01:13:53;4.82;;;2.10;;
26474;SDS011;14161;52.270;10.334;2023-07-02T01:16:20;4.20;;;2.05;;
26474;SDS011;14161;52.270;10.334;2023-07-02T01:18:47;3.38;;;1.92;;
26474;SDS011;14161;52.270;10.334;2023-07-02T01:21:13;3.38;;;2.03;;
26474;SDS011;14161;52.270;10.334;2023-07-02T01:23:38;3.38;;;1.85;;
26474;SDS011;14161;52.270;10.334;2023-07-02T01:26:04;2.63;;;2.10;;
26474;SDS011;14161;52.270;10.334;2023-07-02T01:28:34;2.90;;;1.83;;
26474;SDS011;14161;52.270;10.334;2023-07-02T01:31:00;2.05;;;1.75;;
26474;SDS011;14161;52.270;10.334;2023-07-02T01:33:25;6.43;;;1.85;;
26474;SDS011;14161;52.270;10.334;2023-07-02T01:35:54;3.70;;;2.05;;
26474;SDS011;14161;52.270;10.334;2023-07-02T01:38:19;4.93;;;1.73;;
26474;SDS011;14161;52.270;10.334;2023-07-02T01:40:47;2.00;;;1.75;;
26474;SDS011;14161;52.270;10.334;2023-07-02T01:43:12;3.33;;;1.85;;
26474;SDS011;14161;52.270;10.334;2023-07-02T01:45:38;4.55;;;1.90;;
26474;SDS011;14161;52.270;10.334;2023-07-02T01:48:03;2.50;;;2.05;;
26474;SDS011;14161;52.270;10.334;2023-07-02T01:50:29;2.30;;;1.80;;
26474;SDS011;14161;52.270;10.334;2023-07-02T01:52:54;5.85;;;1.83;;
26474;SDS011;14161;52.270;10.334;2023-07-02T01:55:20;4.00;;;2.20;;
26474;SDS011;14161;52.270;10.334;2023-07-02T01:57:45;4.07;;;2.10;;
26474;SDS011;14161;52.270;10.334;2023-07-02T02:00:11;4.85;;;1.90;;
26474;SDS011;14161;52.270;10.334;2023-07-02T02:02:43;3.90;;;2.05;;
26474;SDS011;14161;52.270;10.334;2023-07-02T02:05:08;6.47;;;2.03;;
26474;SDS011;14161;52.270;10.334;2023-07-02T02:07:35;5.80;;;2.20;;
26474;SDS011;14161;52.270;10.334;2023-07-02T02:10:01;8.52;;;2.05;;
26474;SDS011;14161;52.270;10.334;2023-07-02T02:12:31;4.18;;;2.10;;
26474;SDS011;14161;52.270;10.334;2023-07-02T02:14:56;5.82;;;2.30;;
26474;SDS011;14161;52.270;10.334;2023-07-02T02:17:22;3.65;;;1.80;;
26474;SDS011;14161;52.270;10.334;2023-07-02T02:19:49;3.65;;;2.50;;
26474;SDS011;14161;52.270;10.334;2023-07-02T02:22:14;7.70;;;2.20;;
26474;SDS011;14161;52.270;10.334;2023-07-02T02:24:40;4.68;;;2.03;;
26474;SDS011;14161;52.270;10.334;2023-07-02T02:27:06;7.10;;;2.30;;
26474;SDS011;14161;52.270;10.334;2023-07-02T02:29:32;2.53;;;1.77;;
26474;SDS011;14161;52.270;10.334;2023-07-02T02:31:57;5.15;;;2.45;;
26474;SDS011;14161;52.270;10.334;2023-07-02T02:34:23;3.70;;;2.00;;
26474;SDS011;14161;52.270;10.334;2023-07-02T02:36:48;4.43;;;2.40;;
26474;SDS011;14161;52.270;10.334;2023-07-02T02:39:15;5.43;;;2.17;;
26474;SDS011;14161;52.270;10.334;2023-07-02T02:41:40;3.40;;;1.95;;
26474;SDS011;14161;52.270;10.334;2023-07-02T02:44:06;4.28;;;2.10;;
26474;SDS011;14161;52.270;10.334;2023-07-02T02:46:31;4.78;;;2.08;;
26474;SDS011;14161;52.270;10.334;2023-07-02T02:48:57;2.88;;;1.90;;
26474;SDS011;14161;52.270;10.334;2023-07-02T02:51:22;2.72;;;1.85;;
26474;SDS011;14161;52.270;10.334;2023-07-02T02:53:48;6.60;;;2.50;;
26474;SDS011;14161;52.270;10.334;2023-07-02T02:56:13;2.90;;;1.75;;
26474;SDS011;14161;52.270;10.334;2023-07-02T02:58:39;4.95;;;2.10;;
26474;SDS011;14161;52.270;10.334;2023-07-02T03:01:05;5.32;;;2.42;;
26474;SDS011;14161;52.270;10.334;2023-07-02T03:03:36;5.10;;;2.55;;
26474;SDS011;14161;52.270;10.334;2023-07-02T03:06:04;5.55;;;2.97;;
26474;SDS011;14161;52.270;10.334;2023-07-02T03:08:29;7.32;;;2.65;;
26474;SDS011;14161;52.270;10.334;2023-07-02T03:10:55;4.05;;;2.58;;
26474;SDS011;14161;52.270;10.334;2023-07-02T03:13:20;4.80;;;2.80;;
26474;SDS011;14161;52.270;10.334;2023-07-02T03:15:46;6.68;;;2.90;;
26474;SDS011;14161;52.270;10.334;2023-07-02T03:18:11;4.55;;;2.70;;
26474;SDS011;14161;52.270;10.334;2023-07-02T03:20:37;3.45;;;2.72;;
26474;SDS011;14161;52.270;10.334;2023-07-02T03:23:02;4.43;;;3.13;;
26474;SDS011;14161;52.270;10.334;2023-07-02T03:25:28;3.70;;;2.80;;
26474;SDS011;14161;52.270;10.334;2023-07-02T03:27:56;3.90;;;2.40;;
26474;SDS011;14161;52.270;10.334;2023-07-02T03:30:22;3.58;;;3.15;;
26474;SDS011;14161;52.270;10.334;2023-07-02T03:32:47;5.28;;;3.03;;
26474;SDS011;14161;52.270;10.334;2023-07-02T03:35:13;3.38;;;3.00;;
26474;SDS011;14161;52.270;10.334;2023-07-02T03:37:38;7.45;;;3.97;;
26474;SDS011;14161;52.270;10.334;2023-07-02T03:40:07;7.32;;;3.53;;
26474;SDS011;14161;52.270;10.334;2023-07-02T03:42:32;4.70;;;3.83;;
26474;SDS011;14161;52.270;10.334;2023-07-02T03:44:58;4.65;;;3.72;;
26474;SDS011;14161;52.270;10.334;2023-07-02T03:47:24;5.25;;;3.33;;
26474;SDS011;14161;52.270;10.334;2023-07-02T03:49:49;4.70;;;3.08;;
26474;SDS011;14161;52.270;10.334;2023-07-02T03:52:15;4.50;;;3.28;;
26474;SDS011;14161;52.270;10.334;2023-07-02T03:54:41;5.15;;;3.65;;
26474;SDS011;14161;52.270;10.334;2023-07-02T03:57:06;4.32;;;3.65;;
26474;SDS011;14161;52.270;10.334;2023-07-02T03:59:32;3.33;;;3.00;;
26474;SDS011;14161;52.270;10.334;2023-07-02T04:01:57;4.00;;;2.95;;
26474;SDS011;14161;52.270;10.334;2023-07-02T04:04:23;5.18;;;2.92;;
26474;SDS011;14161;52.270;10.334;2023-07-02T04:06:48;6.22;;;2.72;;
26474;SDS011;14161;52.270;10.334;2023-07-02T04:09:14;4.32;;;2.80;;
26474;SDS011;14161;52.270;10.334;2023-07-02T04:11:39;4.97;;;3.30;;
26474;SDS011;14161;52.270;10.334;2023-07-02T04:14:05;4.90;;;2.88;;
26474;SDS011;14161;52.270;10.334;2023-07-02T04:16:30;5.90;;;3.00;;
26474;SDS011;14161;52.270;10.334;2023-07-02T04:18:55;3.50;;;3.20;;
26474;SDS011;14161;52.270;10.334;2023-07-02T04:21:21;5.03;;;3.20;;
26474;SDS011;14161;52.270;10.334;2023-07-02T04:23:46;5.50;;;3.20;;
26474;SDS011;14161;52.270;10.334;2023-07-02T04:26:12;3.20;;;2.90;;
26474;SDS011;14161;52.270;10.334;2023-07-02T04:28:37;4.38;;;3.33;;
26474;SDS011;14161;52.270;10.334;2023-07-02T04:31:03;4.50;;;3.30;;
26474;SDS011;14161;52.270;10.334;2023-07-02T04:33:28;5.45;;;3.22;;
26474;SDS011;14161;52.270;10.334;2023-07-02T04:36:00;6.20;;;3.92;;
26474;SDS011;14161;52.270;10.334;2023-07-02T04:38:26;4.80;;;3.50;;
26474;SDS011;14161;52.270;10.334;2023-07-02T04:40:52;6.32;;;3.47;;
26474;SDS011;14161;52.270;10.334;2023-07-02T04:43:17;4.45;;;3.40;;
26474;SDS011;14161;52.270;10.334;2023-07-02T04:45:43;5.53;;;3.95;;
26474;SDS011;14161;52.270;10.334;2023-07-02T04:48:09;4.68;;;3.58;;
26474;SDS011;14161;52.270;10.334;2023-07-02T04:50:34;5.05;;;4.18;;
26474;SDS011;14161;52.270;10.334;2023-07-02T04:53:00;3.65;;;3.35;;
26474;SDS011;14161;52.270;10.334;2023-07-02T04:55:26;6.57;;;3.83;;
26474;SDS011;14161;52.270;10.334;2023-07-02T04:57:52;4.78;;;3.85;;
26474;SDS011;14161;52.270;10.334;2023-07-02T05:00:18;4.18;;;3.63;;
26474;SDS011;14161;52.270;10.334;2023-07-02T05:02:44;4.03;;;3.60;;
26474;SDS011;14161;52.270;10.334;2023-07-02T05:05:09;3.45;;;3.15;;
26474;SDS011;14161;52.270;10.334;2023-07-02T05:07:35;3.92;;;3.55;;
26474;SDS011;14161;52.270;10.334;2023-07-02T05:10:00;4.03;;;3.53;;
26474;SDS011;14161;52.270;10.334;2023-07-02T05:12:26;4.10;;;3.70;;
26474;SDS011;14161;52.270;10.334;2023-07-02T05:14:51;4.93;;;3.97;;
26474;SDS011;14161;52.270;10.334;2023-07-02T05:17:17;8.88;;;4.68;;
26474;SDS011;14161;52.270;10.334;2023-07-02T05:19:43;7.80;;;4.82;;
26474;SDS011;14161;52.270;10.334;2023-07-02T05:22:12;5.85;;;3.47;;
26474;SDS011;14161;52.270;10.334;2023-07-02T05:24:37;9.15;;;4.43;;
26474;SDS011;14161;52.270;10.334;2023-07-02T05:27:03;4.93;;;4.28;;
26474;SDS011;14161;52.270;10.334;2023-07-02T05:29:29;7.07;;;4.10;;
26474;SDS011;14161;52.270;10.334;2023-07-02T05:31:54;10.13;;;4.47;;
26474;SDS011;14161;52.270;10.334;2023-07-02T05:34:20;5.93;;;4.25;;
26474;SDS011;14161;52.270;10.334;2023-07-02T05:36:46;7.45;;;4.15;;
26474;SDS011;14161;52.270;10.334;2023-07-02T05:39:12;7.10;;;4.07;;
26474;SDS011;14161;52.270;10.334;2023-07-02T05:41:37;8.60;;;4.97;;
26474;SDS011;14161;52.270;10.334;2023-07-02T05:44:02;6.57;;;4.30;;
26474;SDS011;14161;52.270;10.334;2023-07-02T05:46:28;8.40;;;4.80;;
26474;SDS011;14161;52.270;10.334;2023-07-02T05:48:53;7.63;;;5.75;;
26474;SDS011;14161;52.270;10.334;2023-07-02T05:51:22;8.73;;;5.60;;
26474;SDS011;14161;52.270;10.334;2023-07-02T05:53:49;8.27;;;6.50;;
26474;SDS011;14161;52.270;10.334;2023-07-02T05:56:15;8.27;;;6.35;;
26474;SDS011;14161;52.270;10.334;2023-07-02T05:58:40;9.02;;;5.28;;
26474;SDS011;14161;52.270;10.334;2023-07-02T06:01:06;8.27;;;5.03;;
26474;SDS011;14161;52.270;10.334;2023-07-02T06:03:32;7.75;;;5.57;;
26474;SDS011;14161;52.270;10.334;2023-07-02T06:05:57;9.60;;;6.00;;
26474;SDS011;14161;52.270;10.334;2023-07-02T06:08:23;13.43;;;5.85;;
26474;SDS011;14161;52.270;10.334;2023-07-02T06:10:48;10.25;;;5.28;;
26474;SDS011;14161;52.270;10.334;2023-07-02T06:13:14;15.07;;;6.03;;
26474;SDS011;14161;52.270;10.334;2023-07-02T06:15:40;11.05;;;5.78;;
26474;SDS011;14161;52.270;10.334;2023-07-02T06:18:08;13.38;;;5.93;;
26474;SDS011;14161;52.270;10.334;2023-07-02T06:20:33;8.00;;;4.97;;
26474;SDS011;14161;52.270;10.334;2023-07-02T06:23:01;9.10;;;5.55;;
26474;SDS011;14161;52.270;10.334;2023-07-02T06:25:27;11.10;;;5.90;;
26474;SDS011;14161;52.270;10.334;2023-07-02T06:27:52;12.85;;;6.55;;
26474;SDS011;14161;52.270;10.334;2023-07-02T06:30:21;13.13;;;6.43;;
26474;SDS011;14161;52.270;10.334;2023-07-02T06:32:47;12.95;;;5.80;;
26474;SDS011;14161;52.270;10.334;2023-07-02T06:35:12;10.98;;;6.25;;
26474;SDS011;14161;52.270;10.334;2023-07-02T06:37:38;16.05;;;6.68;;
26474;SDS011;14161;52.270;10.334;2023-07-02T06:40:03;15.07;;;6.15;;
26474;SDS011;14161;52.270;10.334;2023-07-02T06:42:29;9.77;;;6.05;;
26474;SDS011;14161;52.270;10.334;2023-07-02T06:44:55;11.43;;;5.82;;
26474;SDS011;14161;52.270;10.334;2023-07-02T06:47:20;9.65;;;5.07;;
26474;SDS011;14161;52.270;10.334;2023-07-02T06:49:46;10.25;;;6.07;;
26474;SDS011;14161;52.270;10.334;2023-07-02T06:52:12;10.43;;;5.72;;
26474;SDS011;14161;52.270;10.334;2023-07-02T06:54:37;8.98;;;4.85;;
26474;SDS011;14161;52.270;10.334;2023-07-02T06:57:02;11.05;;;5.43;;
26474;SDS011;14161;52.270;10.334;2023-07-02T06:59:28;8.73;;;5.10;;
26474;SDS011;14161;52.270;10.334;2023-07-02T07:01:54;12.68;;;5.50;;
26474;SDS011;14161;52.270;10.334;2023-07-02T07:04:19;8.60;;;4.90;;
26474;SDS011;14161;52.270;10.334;2023-07-02T07:06:45;11.75;;;5.15;;
26474;SDS011;14161;52.270;10.334;2023-07-02T07:09:10;10.25;;;5.45;;
26474;SDS011;14161;52.270;10.334;2023-07-02T07:11:36;11.95;;;5.40;;
26474;SDS011;14161;52.270;10.334;2023-07-02T07:14:02;9.60;;;4.95;;
26474;SDS011;14161;52.270;10.334;2023-07-02T07:16:27;10.57;;;5.40;;
26474;SDS011;14161;52.270;10.334;2023-07-02T07:18:53;13.88;;;5.72;;
26474;SDS011;14161;52.270;10.334;2023-07-02T07:21:18;12.45;;;5.38;;
26474;SDS011;14161;52.270;10.334;2023-07-02T07:23:44;10.13;;;6.00;;
26474;SDS011;14161;52.270;10.334;2023-07-02T07:26:09;12.32;;;5.18;;
26474;SDS011;14161;52.270;10.334;2023-07-02T07:28:35;11.23;;;5.90;;
26474;SDS011;14161;52.270;10.334;2023-07-02T07:31:00;10.68;;;5.50;;
26474;SDS011;14161;52.270;10.334;2023-07-02T07:33:26;14.95;;;5.93;;
26474;SDS011;14161;52.270;10.334;2023-07-02T07:35:51;13.05;;;5.80;;
26474;SDS011;14161;52.270;10.334;2023-07-02T07:38:17;12.43;;;5.30;;
26474;SDS011;14161;52.270;10.334;2023-07-02T07:40:43;11.20;;;5.43;;
26474;SDS011;14161;52.270;10.334;2023-07-02T07:43:08;13.60;;;5.40;;
26474;SDS011;14161;52.270;10.334;2023-07-02T07:45:34;10.27;;;5.63;;
26474;SDS011;14161;52.270;10.334;2023-07-02T07:48:00;14.82;;;6.25;;
26474;SDS011;14161;52.270;10.334;2023-07-02T07:50:25;9.15;;;4.93;;
26474;SDS011;14161;52.270;10.334;2023-07-02T07:52:51;12.13;;;5.78;;
26474;SDS011;14161;52.270;10.334;2023-07-02T07:55:26;12.10;;;5.65;;
26474;SDS011;14161;52.270;10.334;2023-07-02T07:57:51;10.95;;;5.50;;
26474;SDS011;14161;52.270;10.334;2023-07-02T08:00:17;12.75;;;5.75;;
26474;SDS011;14161;52.270;10.334;2023-07-02T08:02:52;18.98;;;6.75;;
26474;SDS011;14161;52.270;10.334;2023-07-02T08:05:22;17.25;;;6.28;;
26474;SDS011;14161;52.270;10.334;2023-07-02T08:07:51;17.67;;;6.13;;
26474;SDS011;14161;52.270;10.334;2023-07-02T08:10:18;12.65;;;5.70;;
26474;SDS011;14161;52.270;10.334;2023-07-02T08:12:50;16.77;;;5.80;;
26474;SDS011;14161;52.270;10.334;2023-07-02T08:15:17;13.43;;;6.28;;
26474;SDS011;14161;52.270;10.334;2023-07-02T08:17:43;14.13;;;6.53;;
26474;SDS011;14161;52.270;10.334;2023-07-02T08:20:09;14.65;;;6.55;;
26474;SDS011;14161;52.270;10.334;2023-07-02T08:25:33;12.50;;;6.18;;
26474;SDS011;14161;52.270;10.334;2023-07-02T08:27:58;15.10;;;6.15;;
26474;SDS011;14161;52.270;10.334;2023-07-02T08:30:24;12.48;;;6.18;;
26474;SDS011;14161;52.270;10.334;2023-07-02T08:32:49;14.10;;;5.95;;
26474;SDS011;14161;52.270;10.334;2023-07-02T08:35:15;15.30;;;6.55;;
26474;SDS011;14161;52.270;10.334;2023-07-02T08:37:40;12.00;;;6.18;;
26474;SDS011;14161;52.270;10.334;2023-07-02T08:40:15;13.13;;;5.20;;
26474;SDS011;14161;52.270;10.334;2023-07-02T08:42:42;10.82;;;5.60;;
26474;SDS011;14161;52.270;10.334;2023-07-02T08:45:08;14.70;;;6.75;;
26474;SDS011;14161;52.270;10.334;2023-07-02T08:47:35;19.08;;;7.15;;
26474;SDS011;14161;52.270;10.334;2023-07-02T08:50:01;19.50;;;7.63;;
26474;SDS011;14161;52.270;10.334;2023-07-02T08:52:28;16.70;;;6.95;;
26474;SDS011;14161;52.270;10.334;2023-07-02T08:54:53;15.82;;;5.85;;
26474;SDS011;14161;52.270;10.334;2023-07-02T08:57:19;12.15;;;5.88;;
26474;SDS011;14161;52.270;10.334;2023-07-02T08:59:46;12.82;;;6.60;;
26474;SDS011;14161;52.270;10.334;2023-07-02T09:02:17;10.23;;;5.60;;
26474;SDS011;14161;52.270;10.334;2023-07-02T09:04:42;15.60;;;6.75;;
26474;SDS011;14161;52.270;10.334;2023-07-02T09:07:08;15.73;;;6.00;;
26474;SDS011;14161;52.270;10.334;2023-07-02T09:09:50;13.00;;;6.55;;
26474;SDS011;14161;52.270;10.334;2023-07-02T09:12:25;11.80;;;6.53;;
26474;SDS011;14161;52.270;10.334;2023-07-02T09:14:59;12.55;;;6.43;;
26474;SDS011;14161;52.270;10.334;2023-07-02T09:17:27;14.13;;;6.28;;
26474;SDS011;14161;52.270;10.334;2023-07-02T09:19:54;13.73;;;6.00;;
26474;SDS011;14161;52.270;10.334;2023-07-02T09:22:19;11.30;;;6.43;;
26474;SDS011;14161;52.270;10.334;2023-07-02T09:24:52;13.85;;;6.15;;
26474;SDS011;14161;52.270;10.334;2023-07-02T09:27:19;14.38;;;6.40;;
26474;SDS011;14161;52.270;10.334;2023-07-02T09:29:49;18.42;;;6.35;;
26474;SDS011;14161;52.270;10.334;2023-07-02T09:32:23;10.90;;;5.70;;
26474;SDS011;14161;52.270;10.334;2023-07-02T09:37:15;13.32;;;6.88;;
26474;SDS011;14161;52.270;10.334;2023-07-02T09:39:41;15.35;;;6.13;;
26474;SDS011;14161;52.270;10.334;2023-07-02T09:42:08;12.77;;;6.32;;
26474;SDS011;14161;52.270;10.334;2023-07-02T09:44:34;15.80;;;6.60;;
26474;SDS011;14161;52.270;10.334;2023-07-02T09:50:12;12.07;;;5.45;;
26474;SDS011;14161;52.270;10.334;2023-07-02T09:52:26;12.23;;;6.15;;
26474;SDS011;14161;52.270;10.334;2023-07-02T09:54:54;16.80;;;6.50;;
26474;SDS011;14161;52.270;10.334;2023-07-02T09:57:20;14.70;;;6.28;;
26474;SDS011;14161;52.270;10.334;2023-07-02T09:59:46;13.93;;;6.50;;
26474;SDS011;14161;52.270;10.334;2023-07-02T10:02:12;12.05;;;6.07;;
26474;SDS011;14161;52.270;10.334;2023-07-02T10:04:42;12.43;;;6.13;;
26474;SDS011;14161;52.270;10.334;2023-07-02T10:07:08;10.77;;;5.63;;
26474;SDS011;14161;52.270;10.334;2023-07-02T10:09:44;10.93;;;5.63;;
26474;SDS011;14161;52.270;10.334;2023-07-02T10:14:50;13.15;;;5.93;;
26474;SDS011;14161;52.270;10.334;2023-07-02T10:17:30;13.57;;;6.57;;
26474;SDS011;14161;52.270;10.334;2023-07-02T10:22:25;15.73;;;6.72;;
26474;SDS011;14161;52.270;10.334;2023-07-02T10:28:36;18.77;;;6.00;;
26474;SDS011;14161;52.270;10.334;2023-07-02T10:31:01;11.73;;;6.18;;
26474;SDS011;14161;52.270;10.334;2023-07-02T10:33:27;13.65;;;6.75;;
26474;SDS011;14161;52.270;10.334;2023-07-02T10:35:55;17.20;;;6.72;;
26474;SDS011;14161;52.270;10.334;2023-07-02T10:38:21;9.48;;;6.00;;
26474;SDS011;14161;52.270;10.334;2023-07-02T10:40:57;12.10;;;6.28;;
26474;SDS011;14161;52.270;10.334;2023-07-02T10:43:29;12.25;;;5.97;;
26474;SDS011;14161;52.270;10.334;2023-07-02T10:46:01;9.80;;;5.25;;
26474;SDS011;14161;52.270;10.334;2023-07-02T10:48:35;14.48;;;5.97;;
26474;SDS011;14161;52.270;10.334;2023-07-02T10:51:13;13.93;;;6.10;;
26474;SDS011;14161;52.270;10.334;2023-07-02T10:53:55;10.63;;;5.40;;
26474;SDS011;14161;52.270;10.334;2023-07-02T10:57:12;9.93;;;6.05;;
26474;SDS011;14161;52.270;10.334;2023-07-02T10:59:48;14.52;;;6.35;;
26474;SDS011;14161;52.270;10.334;2023-07-02T11:05:08;8.98;;;5.22;;
26474;SDS011;14161;52.270;10.334;2023-07-02T11:07:47;11.48;;;5.38;;
26474;SDS011;14161;52.270;10.334;2023-07-02T11:10:19;9.68;;;5.43;;
26474;SDS011;14161;52.270;10.334;2023-07-02T11:12:58;9.30;;;3.93;;
26474;SDS011;14161;52.270;10.334;2023-07-02T11:15:35;13.18;;;6.03;;
26474;SDS011;14161;52.270;10.334;2023-07-02T11:18:42;10.13;;;4.82;;
26474;SDS011;14161;52.270;10.334;2023-07-02T11:21:25;12.43;;;5.45;;
26474;SDS011;14161;52.270;10.334;2023-07-02T11:24:02;14.25;;;5.55;;
26474;SDS011;14161;52.270;10.334;2023-07-02T11:26:47;11.70;;;5.45;;
26474;SDS011;14161;52.270;10.334;2023-07-02T11:29:29;12.73;;;5.18;;
26474;SDS011;14161;52.270;10.334;2023-07-02T11:32:09;12.95;;;5.80;;
26474;SDS011;14161;52.270;10.334;2023-07-02T11:38:18;10.57;;;5.05;;
26474;SDS011;14161;52.270;10.334;2023-07-02T11:40:53;13.20;;;6.15;;
26474;SDS011;14161;52.270;10.334;2023-07-02T11:43:29;9.95;;;5.53;;
26474;SDS011;14161;52.270;10.334;2023-07-02T11:46:27;12.52;;;5.10;;
26474;SDS011;14161;52.270;10.334;2023-07-02T11:52:11;12.20;;;5.05;;
26474;SDS011;14161;52.270;10.334;2023-07-02T11:54:41;10.80;;;4.70;;
26474;SDS011;14161;52.270;10.334;2023-07-02T11:59:55;8.90;;;4.80;;
26474;SDS011;14161;52.270;10.334;2023-07-02T12:02:21;9.90;;;4.75;;
26474;SDS011;14161;52.270;10.334;2023-07-02T12:04:46;10.32;;;5.00;;
26474;SDS011;14161;52.270;10.334;2023-07-02T12:07:12;11.20;;;5.40;;
26474;SDS011;14161;52.270;10.334;2023-07-02T12:09:38;10.35;;;5.50;;
26474;SDS011;14161;52.270;10.334;2023-07-02T12:12:04;13.18;;;5.88;;
26474;SDS011;14161;52.270;10.334;2023-07-02T12:14:30;11.57;;;5.93;;
26474;SDS011;14161;52.270;10.334;2023-07-02T12:16:58;11.13;;;5.63;;
26474;SDS011;14161;52.270;10.334;2023-07-02T12:19:24;11.43;;;5.63;;
26474;SDS011;14161;52.270;10.334;2023-07-02T12:21:49;11.90;;;5.15;;
26474;SDS011;14161;52.270;10.334;2023-07-02T12:24:15;9.75;;;4.90;;
26474;SDS011;14161;52.270;10.334;2023-07-02T12:26:49;9.88;;;4.90;;
26474;SDS011;14161;52.270;10.334;2023-07-02T12:29:14;7.50;;;4.78;;
26474;SDS011;14161;52.270;10.334;2023-07-02T12:31:40;14.63;;;6.00;;
26474;SDS011;14161;52.270;10.334;2023-07-02T12:34:05;10.63;;;5.68;;
26474;SDS011;14161;52.270;10.334;2023-07-02T12:36:33;26.52;;;5.57;;
26474;SDS011;14161;52.270;10.334;2023-07-02T12:39:01;12.65;;;5.53;;
26474;SDS011;14161;52.270;10.334;2023-07-02T12:41:27;15.43;;;5.20;;
26474;SDS011;14161;52.270;10.334;2023-07-02T12:43:55;12.52;;;5.65;;
26474;SDS011;14161;52.270;10.334;2023-07-02T12:46:24;11.60;;;5.10;;
26474;SDS011;14161;52.270;10.334;2023-07-02T12:48:52;11.15;;;4.93;;
26474;SDS011;14161;52.270;10.334;2023-07-02T12:51:18;11.27;;;5.47;;
26474;SDS011;14161;52.270;10.334;2023-07-02T12:53:43;13.05;;;5.30;;
26474;SDS011;14161;52.270;10.334;2023-07-02T12:56:09;11.38;;;5.65;;
26474;SDS011;14161;52.270;10.334;2023-07-02T12:58:34;13.05;;;5.13;;
26474;SDS011;14161;52.270;10.334;2023-07-02T13:01:02;9.75;;;5.10;;
26474;SDS011;14161;52.270;10.334;2023-07-02T13:03:29;11.30;;;5.07;;
26474;SDS011;14161;52.270;10.334;2023-07-02T13:05:55;11.23;;;5.15;;
26474;SDS011;14161;52.270;10.334;2023-07-02T13:08:20;10.45;;;5.32;;
26474;SDS011;14161;52.270;10.334;2023-07-02T13:10:48;13.90;;;5.70;;
26474;SDS011;14161;52.270;10.334;2023-07-02T13:13:14;11.63;;;5.20;;
26474;SDS011;14161;52.270;10.334;2023-07-02T13:15:39;13.68;;;5.50;;
26474;SDS011;14161;52.270;10.334;2023-07-02T13:18:05;10.00;;;5.05;;
26474;SDS011;14161;52.270;10.334;2023-07-02T13:20:30;14.75;;;5.45;;
26474;SDS011;14161;52.270;10.334;2023-07-02T13:22:58;12.50;;;4.78;;
26474;SDS011;14161;52.270;10.334;2023-07-02T13:25:24;10.07;;;5.10;;
26474;SDS011;14161;52.270;10.334;2023-07-02T13:27:49;8.50;;;4.38;;
26474;SDS011;14161;52.270;10.334;2023-07-02T13:30:15;10.32;;;4.97;;
26474;SDS011;14161;52.270;10.334;2023-07-02T13:32:40;9.52;;;5.47;;
26474;SDS011;14161;52.270;10.334;2023-07-02T13:35:06;10.80;;;5.20;;
26474;SDS011;14161;52.270;10.334;2023-07-02T13:37:31;11.10;;;4.90;;
26474;SDS011;14161;52.270;10.334;2023-07-02T13:39:57;10.75;;;5.78;;
26474;SDS011;14161;52.270;10.334;2023-07-02T13:42:22;10.15;;;5.03;;
26474;SDS011;14161;52.270;10.334;2023-07-02T13:44:48;8.85;;;4.65;;
26474;SDS011;14161;52.270;10.334;2023-07-02T13:47:14;7.72;;;4.72;;
26474;SDS011;14161;52.270;10.334;2023-07-02T13:49:39;12.10;;;5.57;;
26474;SDS011;14161;52.270;10.334;2023-07-02T13:52:05;8.20;;;4.63;;
26474;SDS011;14161;52.270;10.334;2023-07-02T13:54:30;11.68;;;5.13;;
26474;SDS011;14161;52.270;10.334;2023-07-02T13:56:56;9.20;;;4.43;;
26474;SDS011;14161;52.270;10.334;2023-07-02T13:59:22;10.07;;;4.45;;
26474;SDS011;14161;52.270;10.334;2023-07-02T14:01:48;9.18;;;4.28;;
26474;SDS011;14161;52.270;10.334;2023-07-02T14:04:14;10.25;;;4.85;;
26474;SDS011;14161;52.270;10.334;2023-07-02T14:06:41;8.63;;;4.97;;
26474;SDS011;14161;52.270;10.334;2023-07-02T14:09:06;10.27;;;5.07;;
26474;SDS011;14161;52.270;10.334;2023-07-02T14:11:33;11.18;;;5.10;;
26474;SDS011;14161;52.270;10.334;2023-07-02T14:13:59;7.80;;;4.72;;
26474;SDS011;14161;52.270;10.334;2023-07-02T14:16:25;11.35;;;5.55;;
26474;SDS011;14161;52.270;10.334;2023-07-02T14:18:51;8.65;;;5.03;;
26474;SDS011;14161;52.270;10.334;2023-07-02T14:21:16;12.85;;;5.20;;
26474;SDS011;14161;52.270;10.334;2023-07-02T14:23:42;10.65;;;5.22;;
26474;SDS011;14161;52.270;10.334;2023-07-02T14:26:08;10.02;;;5.15;;
26474;SDS011;14161;52.270;10.334;2023-07-02T14:28:33;11.05;;;4.63;;
26474;SDS011;14161;52.270;10.334;2023-07-02T14:30:59;8.82;;;5.13;;
26474;SDS011;14161;52.270;10.334;2023-07-02T14:33:26;14.55;;;4.22;;
26474;SDS011;14161;52.270;10.334;2023-07-02T14:35:52;9.23;;;4.65;;
26474;SDS011;14161;52.270;10.334;2023-07-02T14:38:18;10.80;;;4.15;;
26474;SDS011;14161;52.270;10.334;2023-07-02T14:40:43;6.85;;;4.05;;
26474;SDS011;14161;52.270;10.334;2023-07-02T14:43:09;8.38;;;4.68;;
26474;SDS011;14161;52.270;10.334;2023-07-02T14:45:34;7.65;;;3.80;;
26474;SDS011;14161;52.270;10.334;2023-07-02T14:48:00;10.32;;;4.05;;
26474;SDS011;14161;52.270;10.334;2023-07-02T14:50:26;8.15;;;4.22;;
26474;SDS011;14161;52.270;10.334;2023-07-02T14:52:51;6.97;;;4.25;;
26474;SDS011;14161;52.270;10.334;2023-07-02T14:55:17;10.52;;;5.07;;
26474;SDS011;14161;52.270;10.334;2023-07-02T14:57:42;8.85;;;4.10;;
26474;SDS011;14161;52.270;10.334;2023-07-02T15:00:08;10.45;;;4.15;;